Norman, Arkansas
Current Conditions -  °F | °C
As of 5:53 AM on Monday 24 Nov 2014 (Local Time) from KMWT Reporting Station
Clear Clear  
Wind Chill: 44°   Ceiling: Unl
Heat Index: 44°   Visibility: 10mi
Dew Point: 34°   Wind: 3mph
Humidity: 68%   Direction: 310°NW
Pressure: 29.79"   Gusts: NA
Location:  34.46°N, 93.68°W
Report Text: KMWT 241153Z AUTO 31003KT 10SM CLR 07/01 A2979 RMK AO2 SLP086 70004 T00670011 10117 20061 51031
Loading
Personal Weather Stations






























Interactive Weather Map New forecast layout! Learn more

10-Day Weather Forecast

Advertisements
Track Severe Weather on mobile